createdAt,value
2019-01-11T00:00:49.447Z,20.80
2019-01-11T00:03:17.841Z,17.25
2019-01-11T00:05:46.249Z,15.48
2019-01-11T00:08:14.642Z,16.48
2019-01-11T00:10:43.048Z,17.25
2019-01-11T00:13:11.454Z,18.57
2019-01-11T00:15:39.930Z,16.55
2019-01-11T00:18:08.654Z,15.23
2019-01-11T00:20:37.045Z,16.30
2019-01-11T00:23:05.757Z,14.45
2019-01-11T00:25:34.231Z,15.80
2019-01-11T00:28:02.640Z,15.10
2019-01-11T00:30:31.049Z,16.73
2019-01-11T00:32:59.681Z,15.43
2019-01-11T00:35:28.097Z,17.15
2019-01-11T00:37:56.505Z,16.32
2019-01-11T00:40:24.911Z,16.73
2019-01-11T00:42:53.550Z,15.90
2019-01-11T00:45:22.203Z,16.17
2019-01-11T00:47:50.847Z,16.02
2019-01-11T00:50:20.909Z,19.23
2019-01-11T00:52:50.259Z,17.95
2019-01-11T00:55:18.723Z,16.30
2019-01-11T00:57:47.135Z,14.90
2019-01-11T01:00:18.604Z,21.00
2019-01-11T01:02:47.083Z,18.37
2019-01-11T01:05:15.823Z,18.92
2019-01-11T01:07:44.231Z,17.87
2019-01-11T01:10:12.841Z,18.85
2019-01-11T01:12:41.555Z,20.57
2019-01-11T01:15:11.384Z,18.77
2019-01-11T01:17:39.962Z,17.82
2019-01-11T01:20:14.898Z,16.45
2019-01-11T01:22:43.374Z,17.60
2019-01-11T01:25:12.291Z,18.62
2019-01-11T01:27:40.839Z,19.55
2019-01-11T01:30:19.502Z,19.55
2019-01-11T01:32:48.315Z,19.20
2019-01-11T01:35:16.951Z,16.67
2019-01-11T01:37:45.667Z,18.30
2019-01-11T01:40:15.798Z,18.50
2019-01-11T01:42:44.334Z,18.12
2019-01-11T01:45:16.091Z,19.48
2019-01-11T01:47:44.751Z,19.65
2019-01-11T01:50:13.624Z,20.30
2019-01-11T01:52:42.266Z,20.75
2019-01-11T01:55:12.707Z,19.77
2019-01-11T01:57:41.101Z,21.87
2019-01-11T02:00:15.190Z,22.82
2019-01-11T02:02:43.827Z,22.50
2019-01-11T02:05:12.293Z,24.80
2019-01-11T02:07:40.696Z,21.85
2019-01-11T02:10:11.665Z,23.57
2019-01-11T02:12:40.133Z,25.65
2019-01-11T02:15:10.371Z,26.23
2019-01-11T02:17:38.896Z,25.45
2019-01-11T02:20:15.497Z,24.20
2019-01-11T02:22:44.137Z,24.07
2019-01-11T02:25:13.066Z,25.23
2019-01-11T02:27:41.465Z,22.62
2019-01-11T02:30:12.936Z,24.15
2019-01-11T02:32:41.330Z,24.15
2019-01-11T02:35:09.785Z,22.17
2019-01-11T02:37:38.195Z,26.77
2019-01-11T02:40:09.033Z,24.25
2019-01-11T02:42:37.432Z,23.85
2019-01-11T02:45:08.875Z,23.30
2019-01-11T02:47:37.511Z,22.75
2019-01-11T02:50:08.554Z,23.20
2019-01-11T02:52:36.964Z,22.50
2019-01-11T02:55:07.101Z,22.00
2019-01-11T02:57:35.743Z,21.68
2019-01-11T03:00:18.793Z,24.27
2019-01-11T03:02:47.409Z,20.77
2019-01-11T03:05:15.936Z,21.55
2019-01-11T03:07:44.678Z,21.65
2019-01-11T03:10:18.734Z,24.18
2019-01-11T03:12:47.273Z,22.17
2019-01-11T03:15:16.818Z,21.35
2019-01-11T03:17:45.281Z,21.30
2019-01-11T03:20:15.726Z,21.85
2019-01-11T03:22:44.403Z,20.92
2019-01-11T03:25:14.379Z,22.62
2019-01-11T03:27:43.410Z,23.40
2019-01-11T03:30:16.935Z,21.90
2019-01-11T03:32:45.409Z,23.60
2019-01-11T03:35:15.499Z,21.42
2019-01-11T03:37:44.937Z,22.55
2019-01-11T03:40:15.979Z,22.20
2019-01-11T03:42:44.445Z,22.27
2019-01-11T03:45:15.394Z,20.90
2019-01-11T03:47:44.096Z,22.10
2019-01-11T03:50:15.278Z,20.37
2019-01-11T03:52:43.676Z,20.65
2019-01-11T03:55:13.696Z,19.65
2019-01-11T03:57:42.321Z,20.10
2019-01-11T04:00:16.658Z,18.55
2019-01-11T04:02:45.062Z,19.92
2019-01-11T04:05:13.903Z,19.37
2019-01-11T04:07:42.361Z,20.88
2019-01-11T04:10:14.210Z,20.15
2019-01-11T04:12:42.606Z,20.55
2019-01-11T04:15:13.552Z,20.40
2019-01-11T04:17:42.254Z,19.05
2019-01-11T04:20:16.579Z,18.65
2019-01-11T04:22:46.643Z,21.05
2019-01-11T04:25:19.173Z,19.57
2019-01-11T04:27:47.706Z,19.45
2019-01-11T04:30:16.951Z,20.20
2019-01-11T04:32:45.413Z,19.57
2019-01-11T04:35:14.114Z,18.12
2019-01-11T04:37:42.585Z,20.00
2019-01-11T04:40:12.323Z,19.40
2019-01-11T04:42:40.786Z,19.23
2019-01-11T04:45:10.026Z,18.02
2019-01-11T04:47:38.422Z,17.73
2019-01-11T04:50:10.097Z,18.92
2019-01-11T04:52:38.549Z,19.80
2019-01-11T04:55:07.427Z,15.00
2019-01-11T04:57:36.118Z,15.83
2019-01-11T05:00:07.613Z,18.40
2019-01-11T05:02:36.003Z,16.52
2019-01-11T05:05:06.049Z,18.52
2019-01-11T05:07:34.456Z,19.50
2019-01-11T05:10:04.215Z,16.75
2019-01-11T05:12:32.630Z,17.57
2019-01-11T05:15:01.033Z,18.62
2019-01-11T05:17:29.458Z,15.70
2019-01-11T05:19:58.088Z,14.93
2019-01-11T05:22:26.542Z,15.20
2019-01-11T05:24:54.946Z,15.98
2019-01-11T05:27:23.334Z,16.12
2019-01-11T05:29:51.980Z,14.38
2019-01-11T05:32:20.380Z,16.37
2019-01-11T05:34:48.771Z,14.75
2019-01-11T05:37:17.245Z,15.38
2019-01-11T05:39:45.632Z,15.90
2019-01-11T05:42:14.035Z,14.90
2019-01-11T05:44:42.751Z,15.23
2019-01-11T05:47:11.149Z,12.88
2019-01-11T05:49:39.994Z,14.30
2019-01-11T05:52:08.401Z,13.80
2019-01-11T05:54:36.802Z,12.15
2019-01-11T05:57:05.203Z,13.13
2019-01-11T05:59:33.598Z,12.33
2019-01-11T06:02:02.002Z,11.53
2019-01-11T06:04:32.038Z,12.73
2019-01-11T06:07:17.170Z,12.73
2019-01-11T06:09:45.590Z,12.95
2019-01-11T06:12:14.042Z,11.00
2019-01-11T06:14:42.437Z,13.05
2019-01-11T06:17:10.841Z,11.35
2019-01-11T06:19:39.233Z,12.37
2019-01-11T06:22:07.647Z,10.58
2019-01-11T06:24:36.063Z,12.68
2019-01-11T06:27:04.609Z,10.05
2019-01-11T06:29:32.997Z,10.63
2019-01-11T06:32:01.394Z,10.25
2019-01-11T06:34:29.795Z,10.40
2019-01-11T06:36:58.187Z,8.93
2019-01-11T06:39:26.650Z,10.00
2019-01-11T06:41:56.689Z,10.35
2019-01-11T06:44:25.097Z,9.58
2019-01-11T06:46:53.486Z,9.33
2019-01-11T06:49:22.122Z,8.83
2019-01-11T06:51:50.529Z,11.25
2019-01-11T06:54:19.154Z,10.45
2019-01-11T06:56:47.561Z,9.68
2019-01-11T06:59:15.965Z,10.38
2019-01-11T07:01:44.359Z,8.70
2019-01-11T07:04:12.989Z,9.43
2019-01-11T07:06:41.627Z,8.73
2019-01-11T07:09:10.326Z,10.45
2019-01-11T07:11:38.726Z,10.23
2019-01-11T07:14:07.129Z,9.80
2019-01-11T07:16:35.535Z,8.85
2019-01-11T07:19:04.010Z,11.95
2019-01-11T07:21:32.407Z,11.78
2019-01-11T07:24:00.805Z,11.25
2019-01-11T07:26:29.276Z,12.98
2019-01-11T07:28:57.680Z,11.40
2019-01-11T07:31:26.469Z,11.73
2019-01-11T07:33:54.854Z,12.60
2019-01-11T07:36:24.894Z,12.70
2019-01-11T07:38:53.324Z,13.68
2019-01-11T07:41:21.713Z,13.60
2019-01-11T07:43:50.102Z,14.53
2019-01-11T07:46:18.825Z,13.40
2019-01-11T07:48:47.225Z,13.28
2019-01-11T07:51:15.879Z,12.80
2019-01-11T07:53:44.267Z,14.20
2019-01-11T07:56:12.734Z,13.40
2019-01-11T07:58:41.126Z,11.90
2019-01-11T08:01:09.528Z,12.80
2019-01-11T08:03:37.925Z,11.55
2019-01-11T08:06:06.321Z,11.95
2019-01-11T08:08:34.711Z,11.08
2019-01-11T08:11:03.182Z,12.98
2019-01-11T08:13:31.638Z,12.60
2019-01-11T08:16:00.274Z,14.45
2019-01-11T08:18:28.665Z,13.00
2019-01-11T08:20:57.078Z,12.60
2019-01-11T08:23:25.457Z,13.38
2019-01-11T08:25:53.863Z,14.60
2019-01-11T08:28:23.434Z,13.25
2019-01-11T08:30:51.903Z,13.98
2019-01-11T08:33:20.295Z,14.90
2019-01-11T08:35:48.693Z,13.45
2019-01-11T08:38:17.344Z,14.30
2019-01-11T08:40:45.742Z,13.93
2019-01-11T08:43:14.379Z,11.12
2019-01-11T08:45:43.019Z,11.83
2019-01-11T08:48:13.182Z,10.88
2019-01-11T08:50:41.582Z,11.83
2019-01-11T08:53:09.986Z,10.80
2019-01-11T08:55:38.618Z,11.53
2019-01-11T08:58:07.021Z,12.15
2019-01-11T09:00:35.433Z,12.80
2019-01-11T09:03:03.898Z,10.25
2019-01-11T09:05:32.318Z,10.53
2019-01-11T09:08:00.724Z,10.20
2019-01-11T09:10:29.257Z,11.22
2019-01-11T09:12:57.658Z,11.80
2019-01-11T09:15:26.050Z,11.18
2019-01-11T09:17:59.041Z,11.85
2019-01-11T09:20:27.437Z,10.78
2019-01-11T09:22:55.843Z,10.23
2019-01-11T09:25:24.233Z,12.23
2019-01-11T09:27:52.643Z,11.28
2019-01-11T09:30:21.038Z,11.93
2019-01-11T09:32:49.450Z,13.25
2019-01-11T09:35:18.086Z,11.70
2019-01-11T09:37:47.329Z,13.00
2019-01-11T09:40:16.965Z,10.00
2019-01-11T09:42:45.370Z,11.70
2019-01-11T09:45:14.075Z,18.57
2019-01-11T09:47:42.713Z,16.50
2019-01-11T09:50:11.179Z,14.73
2019-01-11T09:52:39.837Z,12.10
2019-01-11T09:55:09.110Z,13.20
2019-01-11T09:57:37.523Z,11.05
2019-01-11T10:00:20.789Z,13.35
2019-01-11T10:02:51.071Z,12.05
2019-01-11T10:05:19.636Z,11.80
2019-01-11T10:07:48.042Z,12.33
2019-01-11T10:10:16.432Z,13.13
2019-01-11T10:12:44.846Z,12.47
2019-01-11T10:15:14.977Z,13.80
2019-01-11T10:17:43.392Z,15.05
2019-01-11T10:20:14.502Z,13.20
2019-01-11T10:22:42.982Z,13.32
2019-01-11T10:25:11.714Z,15.75
2019-01-11T10:27:40.380Z,13.55
2019-01-11T10:30:11.878Z,14.03
2019-01-11T10:32:40.271Z,12.60
2019-01-11T10:35:10.122Z,13.18
2019-01-11T10:37:38.509Z,14.58
2019-01-11T10:40:09.959Z,13.58
2019-01-11T10:42:39.636Z,14.10
2019-01-11T10:45:11.613Z,13.85
2019-01-11T10:47:40.253Z,12.88
2019-01-11T10:50:14.423Z,12.82
2019-01-11T10:52:42.897Z,11.97
2019-01-11T10:55:13.681Z,13.58
2019-01-11T10:57:42.205Z,12.33
2019-01-11T11:00:13.690Z,11.75
2019-01-11T11:02:42.150Z,12.70
2019-01-11T11:05:10.685Z,13.10
2019-01-11T11:07:39.381Z,13.98
2019-01-11T11:10:10.216Z,14.07
2019-01-11T11:12:38.616Z,13.48
2019-01-11T11:15:09.970Z,13.48
2019-01-11T11:17:38.373Z,48.00
2019-01-11T11:20:09.915Z,14.30
2019-01-11T11:22:38.318Z,12.20
2019-01-11T11:25:10.022Z,17.40
2019-01-11T11:27:38.420Z,13.13
2019-01-11T11:30:09.961Z,13.43
2019-01-11T11:32:58.231Z,12.45
2019-01-11T11:35:27.051Z,12.95
2019-01-11T11:37:55.532Z,91.15
2019-01-11T11:40:24.287Z,20.27
2019-01-11T11:42:52.684Z,15.68
2019-01-11T11:45:21.159Z,18.67
2019-01-11T11:47:49.549Z,17.35
2019-01-11T11:50:17.953Z,17.62
2019-01-11T11:52:46.362Z,15.13
2019-01-11T11:55:14.841Z,14.68
2019-01-11T11:57:43.247Z,14.90
2019-01-11T12:00:22.775Z,14.18
2019-01-11T12:02:51.229Z,15.40
2019-01-11T12:05:19.638Z,13.90
2019-01-11T12:07:48.369Z,13.80
2019-01-11T12:10:16.933Z,12.13
2019-01-11T12:12:45.338Z,12.05
2019-01-11T12:15:15.485Z,12.63
2019-01-11T12:17:43.896Z,16.67
2019-01-11T12:20:18.026Z,13.05
2019-01-11T12:22:46.437Z,13.10
2019-01-11T12:25:14.837Z,11.40
2019-01-11T12:27:46.214Z,11.93
2019-01-11T12:30:16.459Z,12.70
2019-01-11T12:32:44.868Z,12.07
2019-01-11T12:35:13.345Z,10.75
2019-01-11T12:37:41.985Z,11.40
2019-01-11T12:40:12.755Z,11.75
2019-01-11T12:42:41.385Z,12.47
2019-01-11T12:45:12.442Z,11.88
2019-01-11T12:47:40.846Z,14.05
2019-01-11T12:50:12.695Z,15.20
2019-01-11T12:52:41.104Z,12.98
2019-01-11T12:55:09.642Z,13.10
2019-01-11T12:57:38.106Z,14.73
2019-01-11T13:00:10.102Z,15.83
2019-01-11T13:02:38.512Z,17.73
2019-01-11T13:05:09.252Z,18.57
2019-01-11T13:07:37.654Z,16.48
2019-01-11T13:10:08.965Z,17.07
2019-01-11T13:12:37.366Z,18.70
2019-01-11T13:15:09.420Z,19.37
2019-01-11T13:17:38.069Z,21.07
2019-01-11T13:20:09.874Z,22.27
2019-01-11T13:22:38.349Z,22.70
2019-01-11T13:25:08.261Z,24.50
2019-01-11T13:27:36.657Z,22.80
2019-01-11T13:30:08.791Z,26.10
2019-01-11T13:32:37.200Z,20.85
2019-01-11T13:35:07.398Z,25.43
2019-01-11T13:37:35.808Z,25.05
2019-01-11T13:40:13.335Z,22.87
2019-01-11T13:42:41.741Z,20.20
2019-01-11T13:45:10.274Z,24.90
2019-01-11T13:47:38.683Z,24.07
2019-01-11T13:50:13.165Z,26.23
2019-01-11T13:52:41.814Z,26.57
2019-01-11T13:55:10.455Z,25.92
2019-01-11T13:57:38.854Z,22.27
2019-01-11T14:00:16.050Z,27.70
2019-01-11T14:02:44.706Z,25.23
2019-01-11T14:05:13.110Z,24.85
2019-01-11T14:07:41.585Z,24.55
2019-01-11T14:10:10.050Z,24.30
2019-01-11T14:12:38.449Z,22.45
2019-01-11T14:15:09.483Z,21.93
2019-01-11T14:17:37.923Z,21.10
2019-01-11T14:20:09.526Z,22.13
2019-01-11T14:22:37.997Z,20.27
2019-01-11T14:25:08.641Z,21.68
2019-01-11T14:27:37.119Z,21.12
2019-01-11T14:30:08.834Z,22.93
2019-01-11T14:32:37.476Z,21.25
2019-01-11T14:35:07.720Z,21.60
2019-01-11T14:37:36.112Z,18.57
2019-01-11T14:40:07.922Z,19.82
2019-01-11T14:42:36.315Z,17.42
2019-01-11T14:45:07.960Z,19.82
2019-01-11T14:47:36.362Z,16.77
2019-01-11T14:50:10.461Z,16.97
2019-01-11T14:52:38.860Z,17.27
2019-01-11T14:55:07.411Z,16.27
2019-01-11T14:57:36.049Z,19.07
2019-01-11T15:00:07.607Z,13.85
2019-01-11T15:02:36.249Z,15.63
2019-01-11T15:05:06.941Z,17.15
2019-01-11T15:07:35.346Z,16.37
2019-01-11T15:10:05.558Z,14.87
2019-01-11T15:12:33.954Z,16.15
2019-01-11T15:15:02.414Z,15.75
2019-01-11T15:17:31.049Z,16.35
2019-01-11T15:19:59.687Z,17.15
2019-01-11T15:22:28.080Z,17.32
2019-01-11T15:24:56.481Z,18.92
2019-01-11T15:27:24.878Z,17.62
2019-01-11T15:29:53.270Z,18.40
2019-01-11T15:32:21.669Z,18.32
2019-01-11T15:34:50.079Z,17.27
2019-01-11T15:37:18.461Z,19.32
2019-01-11T15:39:46.888Z,17.82
2019-01-11T15:42:15.290Z,17.25
2019-01-11T15:44:43.701Z,17.87
2019-01-11T15:47:12.158Z,19.12
2019-01-11T15:49:40.569Z,20.85
2019-01-11T15:52:08.993Z,24.00
2019-01-11T15:54:37.630Z,23.67
2019-01-11T15:57:06.041Z,28.45
2019-01-11T15:59:37.515Z,27.20
2019-01-11T16:02:05.910Z,29.07
2019-01-11T16:04:40.370Z,27.93
2019-01-11T16:07:09.013Z,27.93
2019-01-11T16:09:55.397Z,28.70
2019-01-11T16:12:25.147Z,27.52
2019-01-11T16:15:02.366Z,29.30
2019-01-11T16:17:32.549Z,29.32
2019-01-11T16:20:01.193Z,28.30
2019-01-11T16:22:29.629Z,30.08
2019-01-11T16:24:58.054Z,25.70
2019-01-11T16:27:27.033Z,29.87
2019-01-11T16:29:55.430Z,31.15
2019-01-11T16:32:23.837Z,30.37
2019-01-11T16:34:52.241Z,28.77
2019-01-11T16:37:20.635Z,26.85
2019-01-11T16:39:49.267Z,26.65
2019-01-11T16:42:17.679Z,25.92
2019-01-11T16:44:46.299Z,25.10
2019-01-11T16:47:14.722Z,25.30
2019-01-11T16:49:43.173Z,25.88
2019-01-11T16:52:15.330Z,28.25
2019-01-11T16:54:41.766Z,23.05
2019-01-11T16:57:10.142Z,24.25
2019-01-11T16:59:38.549Z,23.22
2019-01-11T17:02:06.943Z,26.48
2019-01-11T17:04:35.339Z,26.20
2019-01-11T17:07:03.819Z,29.23
2019-01-11T17:09:32.235Z,27.70
2019-01-11T17:12:00.683Z,31.27
2019-01-11T17:14:29.090Z,30.52
2019-01-11T17:16:57.722Z,32.17
2019-01-11T17:19:27.702Z,34.63
2019-01-11T17:21:56.091Z,35.35
2019-01-11T17:24:24.507Z,35.73
2019-01-11T17:26:52.899Z,30.72
2019-01-11T17:29:21.322Z,36.17
2019-01-11T17:31:49.726Z,33.70
2019-01-11T17:34:18.365Z,30.45
2019-01-11T17:36:46.770Z,30.92
2019-01-11T17:39:15.192Z,33.08
2019-01-11T17:41:43.881Z,31.00
2019-01-11T17:44:12.515Z,28.55
2019-01-11T17:46:41.168Z,30.27
2019-01-11T17:49:09.814Z,30.80
2019-01-11T17:51:38.445Z,31.20
2019-01-11T17:54:06.870Z,28.80
2019-01-11T17:56:35.262Z,28.07
2019-01-11T17:59:03.741Z,28.55
2019-01-11T18:01:32.140Z,26.23
2019-01-11T18:04:00.549Z,28.67
2019-01-11T18:06:28.942Z,27.37
2019-01-11T18:08:57.347Z,27.45
2019-01-11T18:11:25.750Z,26.77
2019-01-11T18:13:54.151Z,28.67
2019-01-11T18:16:22.591Z,30.23
2019-01-11T18:18:50.994Z,29.72
2019-01-11T18:21:19.626Z,27.37
2019-01-11T18:23:48.038Z,27.02
2019-01-11T18:26:16.427Z,28.07
2019-01-11T18:28:44.826Z,26.05
2019-01-11T18:31:13.275Z,26.20
2019-01-11T18:33:41.677Z,23.98
2019-01-11T18:36:10.074Z,22.93
2019-01-11T18:38:38.542Z,19.73
2019-01-11T18:41:06.951Z,22.15
2019-01-11T18:43:35.342Z,18.87
2019-01-11T18:46:04.051Z,17.98
2019-01-11T18:48:32.448Z,18.05
2019-01-11T18:51:02.820Z,17.75
2019-01-11T18:53:31.490Z,15.28
2019-01-11T18:56:13.861Z,17.00
2019-01-11T18:58:42.264Z,17.40
2019-01-11T19:01:10.662Z,18.15
2019-01-11T19:03:39.073Z,19.82
2019-01-11T19:06:07.470Z,18.12
2019-01-11T19:08:36.114Z,17.62
2019-01-11T19:11:04.586Z,18.10
2019-01-11T19:13:32.980Z,17.87
2019-01-11T19:16:01.392Z,18.17
2019-01-11T19:18:30.032Z,19.30
2019-01-11T19:20:58.433Z,17.45
2019-01-11T19:23:28.785Z,17.48
2019-01-11T19:25:57.190Z,17.32
2019-01-11T19:28:25.590Z,15.15
2019-01-11T19:30:54.068Z,16.20
2019-01-11T19:33:22.471Z,16.17
2019-01-11T19:35:50.941Z,15.93
2019-01-11T19:38:19.355Z,15.53
2019-01-11T19:40:48.008Z,16.23
2019-01-11T19:43:16.398Z,16.67
2019-01-11T19:45:44.880Z,17.50
2019-01-11T19:48:13.316Z,17.30
2019-01-11T19:50:41.709Z,15.45
2019-01-11T19:53:10.120Z,17.80
2019-01-11T19:55:44.505Z,17.37
2019-01-11T19:58:12.901Z,18.00
2019-01-11T20:00:41.325Z,18.82
2019-01-11T20:03:09.706Z,17.17
2019-01-11T20:05:38.100Z,16.70
2019-01-11T20:08:07.109Z,16.50
2019-01-11T20:10:35.808Z,17.05
2019-01-11T20:13:04.486Z,19.62
2019-01-11T20:15:33.263Z,16.65
2019-01-11T20:18:01.751Z,18.23
2019-01-11T20:20:30.197Z,19.92
2019-01-11T20:23:02.449Z,19.95
2019-01-11T20:25:28.786Z,20.60
2019-01-11T20:27:57.183Z,21.02
2019-01-11T20:30:26.427Z,18.40
2019-01-11T20:32:54.825Z,21.20
2019-01-11T20:35:23.642Z,20.50
2019-01-11T20:37:52.117Z,18.67
2019-01-11T20:40:20.522Z,19.87
2019-01-11T20:42:49.290Z,17.65
2019-01-11T20:45:19.575Z,19.30
2019-01-11T20:47:48.215Z,17.92
2019-01-11T20:50:18.770Z,20.30
2019-01-11T20:52:47.249Z,22.10
2019-01-11T20:55:16.082Z,17.70
2019-01-11T20:57:45.012Z,19.40
2019-01-11T21:00:16.835Z,22.52
2019-01-11T21:02:45.227Z,21.25
2019-01-11T21:05:16.407Z,19.45
2019-01-11T21:07:44.849Z,19.17
2019-01-11T21:10:14.734Z,20.72
2019-01-11T21:12:43.204Z,20.05
2019-01-11T21:15:14.855Z,20.00
2019-01-11T21:17:43.382Z,19.95
2019-01-11T21:20:14.446Z,14.93
2019-01-11T21:22:43.281Z,16.25
2019-01-11T21:25:19.302Z,17.90
2019-01-11T21:27:47.847Z,15.40
2019-01-11T21:30:26.753Z,16.97
2019-01-11T21:32:55.259Z,17.73
2019-01-11T21:35:24.150Z,17.75
2019-01-11T21:37:52.600Z,16.02
2019-01-11T21:40:21.803Z,15.18
2019-01-11T21:42:50.733Z,14.03
2019-01-11T21:45:20.938Z,16.93
2019-01-11T21:47:49.398Z,17.57
2019-01-11T21:50:22.524Z,18.20
2019-01-11T21:52:51.487Z,18.32
2019-01-11T21:55:22.037Z,17.80
2019-01-11T21:57:50.458Z,18.90
2019-01-11T22:00:27.861Z,17.60
2019-01-11T22:02:56.438Z,17.62
2019-01-11T22:05:24.921Z,17.02
2019-01-11T22:07:53.324Z,14.98
2019-01-11T22:10:21.738Z,15.53
2019-01-11T22:12:50.138Z,14.33
2019-01-11T22:15:19.483Z,14.20
2019-01-11T22:17:48.263Z,13.18
2019-01-11T22:20:17.954Z,13.53
2019-01-11T22:22:46.637Z,14.10
2019-01-11T22:25:17.477Z,13.22
2019-01-11T22:27:45.873Z,12.93
2019-01-11T22:30:16.654Z,12.13
2019-01-11T22:32:45.085Z,11.50
2019-01-11T22:35:14.034Z,10.15
2019-01-11T22:37:42.536Z,10.40
2019-01-11T22:40:14.049Z,11.25
2019-01-11T22:42:42.449Z,12.07
2019-01-11T22:45:13.196Z,12.23
2019-01-11T22:47:41.666Z,14.55
2019-01-11T22:50:12.611Z,16.50
2019-01-11T22:52:41.318Z,16.32
2019-01-11T22:55:11.962Z,14.60
2019-01-11T22:57:40.831Z,14.40
2019-01-11T23:00:12.667Z,12.43
2019-01-11T23:02:41.390Z,12.13
2019-01-11T23:05:10.150Z,16.35
2019-01-11T23:07:38.899Z,13.28
2019-01-11T23:10:12.923Z,14.10
2019-01-11T23:12:43.789Z,14.90
2019-01-11T23:15:15.273Z,17.27
2019-01-11T23:17:47.367Z,16.42
2019-01-11T23:20:15.777Z,17.20
2019-01-11T23:22:44.177Z,17.80
2019-01-11T23:25:12.638Z,20.05
2019-01-11T23:27:41.362Z,17.98
2019-01-11T23:30:13.084Z,19.35
2019-01-11T23:32:41.502Z,18.85
2019-01-11T23:35:10.037Z,18.15
2019-01-11T23:37:38.450Z,18.20
2019-01-11T23:40:09.782Z,18.60
2019-01-11T23:42:38.261Z,17.05
2019-01-11T23:45:09.705Z,16.77
2019-01-11T23:47:38.374Z,16.82
2019-01-11T23:50:12.315Z,18.62
2019-01-11T23:52:40.721Z,16.57
2019-01-11T23:55:10.550Z,16.48
2019-01-11T23:57:38.989Z,15.95
